sensor_id;sensor_type;location;lat;lon;timestamp;P1;durP1;ratioP1;P2;durP2;ratioP2
23338;SDS011;11841;49.368;20.962;2023-07-20T00:00:58;9.70;;;5.80;;
23338;SDS011;11841;49.368;20.962;2023-07-20T00:03:44;12.77;;;5.70;;
23338;SDS011;11841;49.368;20.962;2023-07-20T00:06:29;6.72;;;4.65;;
23338;SDS011;11841;49.368;20.962;2023-07-20T00:09:14;10.75;;;6.28;;
23338;SDS011;11841;49.368;20.962;2023-07-20T00:12:00;13.48;;;6.30;;
23338;SDS011;11841;49.368;20.962;2023-07-20T00:14:45;8.77;;;4.70;;
23338;SDS011;11841;49.368;20.962;2023-07-20T00:17:31;6.40;;;4.93;;
23338;SDS011;11841;49.368;20.962;2023-07-20T00:20:16;9.15;;;4.97;;
23338;SDS011;11841;49.368;20.962;2023-07-20T00:23:01;7.78;;;4.82;;
23338;SDS011;11841;49.368;20.962;2023-07-20T00:25:47;7.82;;;4.95;;
23338;SDS011;11841;49.368;20.962;2023-07-20T00:28:33;9.07;;;5.15;;
23338;SDS011;11841;49.368;20.962;2023-07-20T00:31:18;10.40;;;4.15;;
23338;SDS011;11841;49.368;20.962;2023-07-20T00:34:04;7.68;;;5.15;;
23338;SDS011;11841;49.368;20.962;2023-07-20T00:36:50;16.67;;;5.55;;
23338;SDS011;11841;49.368;20.962;2023-07-20T00:39:35;9.77;;;5.50;;
23338;SDS011;11841;49.368;20.962;2023-07-20T00:42:20;7.53;;;5.20;;
23338;SDS011;11841;49.368;20.962;2023-07-20T00:45:06;11.27;;;6.47;;
23338;SDS011;11841;49.368;20.962;2023-07-20T00:47:51;14.27;;;5.40;;
23338;SDS011;11841;49.368;20.962;2023-07-20T00:50:36;10.40;;;5.28;;
23338;SDS011;11841;49.368;20.962;2023-07-20T00:53:22;9.15;;;5.25;;
23338;SDS011;11841;49.368;20.962;2023-07-20T00:56:07;15.70;;;5.63;;
23338;SDS011;11841;49.368;20.962;2023-07-20T00:58:53;14.63;;;5.50;;
23338;SDS011;11841;49.368;20.962;2023-07-20T01:01:39;8.23;;;5.75;;
23338;SDS011;11841;49.368;20.962;2023-07-20T01:04:24;7.10;;;5.32;;
23338;SDS011;11841;49.368;20.962;2023-07-20T01:13:22;11.68;;;5.53;;
23338;SDS011;11841;49.368;20.962;2023-07-20T01:16:08;10.40;;;6.15;;
23338;SDS011;11841;49.368;20.962;2023-07-20T01:18:54;10.10;;;6.45;;
23338;SDS011;11841;49.368;20.962;2023-07-20T01:30:52;7.57;;;5.18;;
23338;SDS011;11841;49.368;20.962;2023-07-20T01:33:44;10.15;;;5.10;;
23338;SDS011;11841;49.368;20.962;2023-07-20T01:36:33;14.20;;;5.67;;
23338;SDS011;11841;49.368;20.962;2023-07-20T01:39:20;9.88;;;5.43;;
23338;SDS011;11841;49.368;20.962;2023-07-20T01:42:07;13.68;;;6.38;;
23338;SDS011;11841;49.368;20.962;2023-07-20T01:44:52;8.30;;;5.57;;
23338;SDS011;11841;49.368;20.962;2023-07-20T01:47:38;9.05;;;5.20;;
23338;SDS011;11841;49.368;20.962;2023-07-20T01:50:23;7.25;;;5.65;;
23338;SDS011;11841;49.368;20.962;2023-07-20T01:53:09;9.75;;;5.25;;
23338;SDS011;11841;49.368;20.962;2023-07-20T01:55:54;15.52;;;6.88;;
23338;SDS011;11841;49.368;20.962;2023-07-20T01:58:40;10.15;;;5.78;;
23338;SDS011;11841;49.368;20.962;2023-07-20T02:01:25;18.88;;;6.95;;
23338;SDS011;11841;49.368;20.962;2023-07-20T02:04:13;11.07;;;6.90;;
23338;SDS011;11841;49.368;20.962;2023-07-20T02:06:59;21.00;;;6.93;;
23338;SDS011;11841;49.368;20.962;2023-07-20T02:09:44;13.20;;;6.63;;
23338;SDS011;11841;49.368;20.962;2023-07-20T02:12:29;9.90;;;6.00;;
23338;SDS011;11841;49.368;20.962;2023-07-20T02:15:15;14.77;;;6.82;;
23338;SDS011;11841;49.368;20.962;2023-07-20T02:18:01;9.90;;;6.05;;
23338;SDS011;11841;49.368;20.962;2023-07-20T02:20:48;9.43;;;5.93;;
23338;SDS011;11841;49.368;20.962;2023-07-20T02:23:34;9.10;;;6.13;;
23338;SDS011;11841;49.368;20.962;2023-07-20T02:26:19;10.20;;;5.95;;
23338;SDS011;11841;49.368;20.962;2023-07-20T02:29:05;12.70;;;5.45;;
23338;SDS011;11841;49.368;20.962;2023-07-20T02:31:50;11.68;;;6.30;;
23338;SDS011;11841;49.368;20.962;2023-07-20T02:34:35;8.65;;;5.43;;
23338;SDS011;11841;49.368;20.962;2023-07-20T02:37:21;13.88;;;6.05;;
23338;SDS011;11841;49.368;20.962;2023-07-20T02:40:06;5.95;;;4.55;;
23338;SDS011;11841;49.368;20.962;2023-07-20T02:42:52;6.63;;;4.20;;
23338;SDS011;11841;49.368;20.962;2023-07-20T02:45:41;5.35;;;4.10;;
23338;SDS011;11841;49.368;20.962;2023-07-20T02:48:28;4.53;;;3.83;;
23338;SDS011;11841;49.368;20.962;2023-07-20T02:51:13;4.25;;;3.28;;
23338;SDS011;11841;49.368;20.962;2023-07-20T02:53:58;6.50;;;4.07;;
23338;SDS011;11841;49.368;20.962;2023-07-20T02:56:44;4.75;;;3.90;;
23338;SDS011;11841;49.368;20.962;2023-07-20T02:59:29;4.63;;;3.47;;
23338;SDS011;11841;49.368;20.962;2023-07-20T03:02:14;5.93;;;3.75;;
23338;SDS011;11841;49.368;20.962;2023-07-20T03:05:00;3.80;;;2.83;;
23338;SDS011;11841;49.368;20.962;2023-07-20T03:07:47;4.25;;;3.05;;
23338;SDS011;11841;49.368;20.962;2023-07-20T03:10:33;5.05;;;3.30;;
23338;SDS011;11841;49.368;20.962;2023-07-20T03:13:22;4.70;;;3.72;;
23338;SDS011;11841;49.368;20.962;2023-07-20T03:16:09;9.93;;;4.00;;
23338;SDS011;11841;49.368;20.962;2023-07-20T03:18:55;3.97;;;3.47;;
23338;SDS011;11841;49.368;20.962;2023-07-20T03:21:41;4.35;;;3.72;;
23338;SDS011;11841;49.368;20.962;2023-07-20T03:24:26;4.32;;;3.53;;
23338;SDS011;11841;49.368;20.962;2023-07-20T03:27:12;5.00;;;3.55;;
23338;SDS011;11841;49.368;20.962;2023-07-20T03:29:57;5.40;;;3.95;;
23338;SDS011;11841;49.368;20.962;2023-07-20T03:32:43;7.18;;;4.45;;
23338;SDS011;11841;49.368;20.962;2023-07-20T03:35:28;8.68;;;5.22;;
23338;SDS011;11841;49.368;20.962;2023-07-20T03:38:14;11.25;;;5.10;;
23338;SDS011;11841;49.368;20.962;2023-07-20T03:40:59;7.90;;;5.32;;
23338;SDS011;11841;49.368;20.962;2023-07-20T03:43:45;6.60;;;4.20;;
23338;SDS011;11841;49.368;20.962;2023-07-20T03:46:31;6.28;;;3.97;;
23338;SDS011;11841;49.368;20.962;2023-07-20T03:49:19;6.10;;;4.28;;
23338;SDS011;11841;49.368;20.962;2023-07-20T03:52:04;7.47;;;4.60;;
23338;SDS011;11841;49.368;20.962;2023-07-20T03:54:50;5.97;;;4.18;;
23338;SDS011;11841;49.368;20.962;2023-07-20T03:57:38;8.32;;;5.05;;
23338;SDS011;11841;49.368;20.962;2023-07-20T04:00:23;11.93;;;5.25;;
23338;SDS011;11841;49.368;20.962;2023-07-20T04:03:09;8.35;;;5.55;;
23338;SDS011;11841;49.368;20.962;2023-07-20T04:05:54;10.13;;;5.57;;
23338;SDS011;11841;49.368;20.962;2023-07-20T04:08:40;13.20;;;5.97;;
23338;SDS011;11841;49.368;20.962;2023-07-20T04:11:25;12.23;;;6.13;;
23338;SDS011;11841;49.368;20.962;2023-07-20T04:14:11;11.68;;;6.25;;
23338;SDS011;11841;49.368;20.962;2023-07-20T04:16:56;11.30;;;6.40;;
23338;SDS011;11841;49.368;20.962;2023-07-20T04:19:42;13.02;;;5.75;;
23338;SDS011;11841;49.368;20.962;2023-07-20T04:22:28;7.43;;;5.55;;
23338;SDS011;11841;49.368;20.962;2023-07-20T04:25:13;10.15;;;5.78;;
23338;SDS011;11841;49.368;20.962;2023-07-20T04:27:59;10.20;;;6.40;;
23338;SDS011;11841;49.368;20.962;2023-07-20T04:30:44;8.73;;;6.30;;
23338;SDS011;11841;49.368;20.962;2023-07-20T04:33:33;11.20;;;6.18;;
23338;SDS011;11841;49.368;20.962;2023-07-20T04:36:19;13.18;;;6.38;;
23338;SDS011;11841;49.368;20.962;2023-07-20T04:39:05;9.70;;;4.55;;
23338;SDS011;11841;49.368;20.962;2023-07-20T04:42:05;6.65;;;4.97;;
23338;SDS011;11841;49.368;20.962;2023-07-20T04:44:50;6.30;;;4.85;;
23338;SDS011;11841;49.368;20.962;2023-07-20T04:47:35;5.93;;;4.82;;
23338;SDS011;11841;49.368;20.962;2023-07-20T04:50:21;5.75;;;4.20;;
23338;SDS011;11841;49.368;20.962;2023-07-20T04:53:06;6.28;;;3.95;;
23338;SDS011;11841;49.368;20.962;2023-07-20T04:55:52;6.72;;;4.28;;
23338;SDS011;11841;49.368;20.962;2023-07-20T04:58:39;7.35;;;5.15;;
23338;SDS011;11841;49.368;20.962;2023-07-20T05:01:24;11.40;;;4.70;;
23338;SDS011;11841;49.368;20.962;2023-07-20T05:04:11;6.00;;;4.40;;
23338;SDS011;11841;49.368;20.962;2023-07-20T05:06:56;8.82;;;6.13;;
23338;SDS011;11841;49.368;20.962;2023-07-20T05:09:42;15.15;;;10.35;;
23338;SDS011;11841;49.368;20.962;2023-07-20T05:12:27;9.48;;;6.18;;
23338;SDS011;11841;49.368;20.962;2023-07-20T05:15:12;10.68;;;5.40;;
23338;SDS011;11841;49.368;20.962;2023-07-20T05:17:58;6.07;;;4.72;;
23338;SDS011;11841;49.368;20.962;2023-07-20T05:20:43;6.22;;;4.82;;
23338;SDS011;11841;49.368;20.962;2023-07-20T05:23:31;4.87;;;4.30;;
23338;SDS011;11841;49.368;20.962;2023-07-20T05:26:17;6.22;;;3.75;;
23338;SDS011;11841;49.368;20.962;2023-07-20T05:29:02;7.40;;;4.82;;
23338;SDS011;11841;49.368;20.962;2023-07-20T05:31:47;5.53;;;4.35;;
23338;SDS011;11841;49.368;20.962;2023-07-20T05:34:32;5.63;;;4.55;;
23338;SDS011;11841;49.368;20.962;2023-07-20T05:37:17;4.72;;;4.18;;
23338;SDS011;11841;49.368;20.962;2023-07-20T05:40:03;6.15;;;4.38;;
23338;SDS011;11841;49.368;20.962;2023-07-20T05:42:49;5.55;;;4.47;;
23338;SDS011;11841;49.368;20.962;2023-07-20T05:45:37;6.57;;;4.60;;
23338;SDS011;11841;49.368;20.962;2023-07-20T05:48:23;12.32;;;4.47;;
23338;SDS011;11841;49.368;20.962;2023-07-20T05:51:09;9.18;;;4.75;;
23338;SDS011;11841;49.368;20.962;2023-07-20T05:53:54;11.45;;;5.13;;
23338;SDS011;11841;49.368;20.962;2023-07-20T05:56:39;8.90;;;5.70;;
23338;SDS011;11841;49.368;20.962;2023-07-20T05:59:24;7.63;;;4.65;;
23338;SDS011;11841;49.368;20.962;2023-07-20T06:02:10;9.75;;;5.05;;
23338;SDS011;11841;49.368;20.962;2023-07-20T06:04:56;7.75;;;6.05;;
23338;SDS011;11841;49.368;20.962;2023-07-20T06:07:41;9.32;;;5.40;;
23338;SDS011;11841;49.368;20.962;2023-07-20T06:10:26;9.45;;;5.47;;
23338;SDS011;11841;49.368;20.962;2023-07-20T06:13:12;11.45;;;4.95;;
23338;SDS011;11841;49.368;20.962;2023-07-20T06:15:57;8.07;;;4.82;;
23338;SDS011;11841;49.368;20.962;2023-07-20T06:18:42;8.93;;;4.80;;
23338;SDS011;11841;49.368;20.962;2023-07-20T06:21:28;7.28;;;5.13;;
23338;SDS011;11841;49.368;20.962;2023-07-20T06:24:13;7.75;;;4.85;;
23338;SDS011;11841;49.368;20.962;2023-07-20T06:26:59;7.85;;;4.10;;
23338;SDS011;11841;49.368;20.962;2023-07-20T06:29:44;9.35;;;3.88;;
23338;SDS011;11841;49.368;20.962;2023-07-20T06:32:29;6.10;;;3.53;;
23338;SDS011;11841;49.368;20.962;2023-07-20T06:35:15;3.28;;;2.92;;
23338;SDS011;11841;49.368;20.962;2023-07-20T06:38:01;5.82;;;3.72;;
23338;SDS011;11841;49.368;20.962;2023-07-20T06:40:51;5.28;;;3.17;;
23338;SDS011;11841;49.368;20.962;2023-07-20T06:43:36;6.47;;;3.38;;
23338;SDS011;11841;49.368;20.962;2023-07-20T06:46:25;13.88;;;3.22;;
23338;SDS011;11841;49.368;20.962;2023-07-20T06:49:15;3.67;;;2.83;;
23338;SDS011;11841;49.368;20.962;2023-07-20T06:52:09;6.85;;;3.25;;
23338;SDS011;11841;49.368;20.962;2023-07-20T06:54:55;8.13;;;3.75;;
23338;SDS011;11841;49.368;20.962;2023-07-20T06:57:40;8.82;;;4.28;;
23338;SDS011;11841;49.368;20.962;2023-07-20T07:00:31;6.65;;;3.53;;
23338;SDS011;11841;49.368;20.962;2023-07-20T07:03:16;7.03;;;3.75;;
23338;SDS011;11841;49.368;20.962;2023-07-20T07:06:02;8.18;;;4.30;;
23338;SDS011;11841;49.368;20.962;2023-07-20T07:08:48;5.63;;;3.38;;
23338;SDS011;11841;49.368;20.962;2023-07-20T07:11:33;6.32;;;3.63;;
23338;SDS011;11841;49.368;20.962;2023-07-20T07:14:19;6.53;;;3.85;;
23338;SDS011;11841;49.368;20.962;2023-07-20T07:17:05;5.40;;;4.15;;
23338;SDS011;11841;49.368;20.962;2023-07-20T07:19:51;8.25;;;3.75;;
23338;SDS011;11841;49.368;20.962;2023-07-20T07:22:40;6.28;;;3.22;;
23338;SDS011;11841;49.368;20.962;2023-07-20T07:25:30;8.13;;;3.67;;
23338;SDS011;11841;49.368;20.962;2023-07-20T07:28:17;8.88;;;4.40;;
23338;SDS011;11841;49.368;20.962;2023-07-20T07:31:05;11.90;;;5.45;;
23338;SDS011;11841;49.368;20.962;2023-07-20T07:36:36;7.53;;;4.47;;
23338;SDS011;11841;49.368;20.962;2023-07-20T07:39:21;5.65;;;4.22;;
23338;SDS011;11841;49.368;20.962;2023-07-20T07:42:12;7.50;;;4.68;;
23338;SDS011;11841;49.368;20.962;2023-07-20T07:44:58;8.75;;;4.40;;
23338;SDS011;11841;49.368;20.962;2023-07-20T07:47:43;6.43;;;4.10;;
23338;SDS011;11841;49.368;20.962;2023-07-20T07:50:29;6.72;;;4.72;;
23338;SDS011;11841;49.368;20.962;2023-07-20T07:53:14;5.68;;;3.97;;
23338;SDS011;11841;49.368;20.962;2023-07-20T07:55:59;7.00;;;4.65;;
23338;SDS011;11841;49.368;20.962;2023-07-20T07:58:45;10.20;;;5.20;;
23338;SDS011;11841;49.368;20.962;2023-07-20T08:01:30;8.95;;;4.90;;
23338;SDS011;11841;49.368;20.962;2023-07-20T08:04:16;12.25;;;5.65;;
23338;SDS011;11841;49.368;20.962;2023-07-20T08:07:03;9.13;;;5.13;;
23338;SDS011;11841;49.368;20.962;2023-07-20T08:09:49;10.88;;;4.88;;
23338;SDS011;11841;49.368;20.962;2023-07-20T08:12:34;11.48;;;5.30;;
23338;SDS011;11841;49.368;20.962;2023-07-20T08:15:20;11.48;;;5.25;;
23338;SDS011;11841;49.368;20.962;2023-07-20T08:18:05;15.70;;;5.45;;
23338;SDS011;11841;49.368;20.962;2023-07-20T08:20:51;9.15;;;5.28;;
23338;SDS011;11841;49.368;20.962;2023-07-20T08:23:37;8.60;;;5.47;;
23338;SDS011;11841;49.368;20.962;2023-07-20T08:26:23;9.00;;;5.13;;
23338;SDS011;11841;49.368;20.962;2023-07-20T08:29:09;10.07;;;5.38;;
23338;SDS011;11841;49.368;20.962;2023-07-20T08:31:54;10.32;;;6.03;;
23338;SDS011;11841;49.368;20.962;2023-07-20T08:34:41;6.80;;;5.57;;
23338;SDS011;11841;49.368;20.962;2023-07-20T08:37:27;7.22;;;5.60;;
23338;SDS011;11841;49.368;20.962;2023-07-20T08:40:13;9.70;;;5.32;;
23338;SDS011;11841;49.368;20.962;2023-07-20T08:42:59;10.65;;;5.32;;
23338;SDS011;11841;49.368;20.962;2023-07-20T08:45:47;6.50;;;5.13;;
23338;SDS011;11841;49.368;20.962;2023-07-20T08:48:34;7.32;;;5.28;;
23338;SDS011;11841;49.368;20.962;2023-07-20T08:51:19;11.75;;;5.97;;
23338;SDS011;11841;49.368;20.962;2023-07-20T08:54:06;11.98;;;4.97;;
23338;SDS011;11841;49.368;20.962;2023-07-20T08:56:54;7.85;;;4.97;;
23338;SDS011;11841;49.368;20.962;2023-07-20T08:59:42;5.80;;;3.97;;
23338;SDS011;11841;49.368;20.962;2023-07-20T09:02:29;8.77;;;3.70;;
23338;SDS011;11841;49.368;20.962;2023-07-20T09:05:21;10.02;;;3.97;;
23338;SDS011;11841;49.368;20.962;2023-07-20T09:08:10;7.38;;;4.10;;
23338;SDS011;11841;49.368;20.962;2023-07-20T09:10:55;7.43;;;3.75;;
23338;SDS011;11841;49.368;20.962;2023-07-20T09:13:41;7.68;;;4.10;;
23338;SDS011;11841;49.368;20.962;2023-07-20T09:16:26;8.50;;;4.80;;
23338;SDS011;11841;49.368;20.962;2023-07-20T09:19:15;8.95;;;3.75;;
23338;SDS011;11841;49.368;20.962;2023-07-20T09:22:01;4.38;;;3.67;;
23338;SDS011;11841;49.368;20.962;2023-07-20T09:24:46;6.70;;;3.65;;
23338;SDS011;11841;49.368;20.962;2023-07-20T09:27:38;10.20;;;4.43;;
23338;SDS011;11841;49.368;20.962;2023-07-20T09:30:25;6.85;;;4.43;;
23338;SDS011;11841;49.368;20.962;2023-07-20T09:33:21;10.63;;;4.22;;
23338;SDS011;11841;49.368;20.962;2023-07-20T09:36:09;4.97;;;3.42;;
23338;SDS011;11841;49.368;20.962;2023-07-20T09:39:16;8.10;;;3.28;;
23338;SDS011;11841;49.368;20.962;2023-07-20T09:42:13;7.90;;;3.63;;
23338;SDS011;11841;49.368;20.962;2023-07-20T09:45:02;4.70;;;3.10;;
23338;SDS011;11841;49.368;20.962;2023-07-20T09:47:47;8.80;;;3.53;;
23338;SDS011;11841;49.368;20.962;2023-07-20T09:50:53;5.68;;;3.35;;
23338;SDS011;11841;49.368;20.962;2023-07-20T09:53:39;9.60;;;3.53;;
23338;SDS011;11841;49.368;20.962;2023-07-20T09:56:24;5.25;;;3.17;;
23338;SDS011;11841;49.368;20.962;2023-07-20T09:59:12;5.93;;;2.72;;
23338;SDS011;11841;49.368;20.962;2023-07-20T10:01:57;6.75;;;3.67;;
23338;SDS011;11841;49.368;20.962;2023-07-20T10:04:44;6.43;;;3.38;;
23338;SDS011;11841;49.368;20.962;2023-07-20T10:07:30;5.07;;;3.03;;
23338;SDS011;11841;49.368;20.962;2023-07-20T10:10:17;8.18;;;3.85;;
23338;SDS011;11841;49.368;20.962;2023-07-20T10:13:04;7.78;;;4.10;;
23338;SDS011;11841;49.368;20.962;2023-07-20T10:15:53;6.88;;;3.42;;
23338;SDS011;11841;49.368;20.962;2023-07-20T10:18:48;6.32;;;3.35;;
23338;SDS011;11841;49.368;20.962;2023-07-20T10:21:37;6.68;;;3.22;;
23338;SDS011;11841;49.368;20.962;2023-07-20T10:24:28;4.30;;;3.35;;
23338;SDS011;11841;49.368;20.962;2023-07-20T10:27:14;9.40;;;3.50;;
23338;SDS011;11841;49.368;20.962;2023-07-20T10:30:00;5.55;;;3.38;;
23338;SDS011;11841;49.368;20.962;2023-07-20T10:32:47;4.82;;;3.13;;
23338;SDS011;11841;49.368;20.962;2023-07-20T10:41:34;5.03;;;3.13;;
23338;SDS011;11841;49.368;20.962;2023-07-20T10:44:21;10.65;;;3.85;;
23338;SDS011;11841;49.368;20.962;2023-07-20T10:47:11;7.07;;;3.30;;
23338;SDS011;11841;49.368;20.962;2023-07-20T10:49:58;7.43;;;3.15;;
23338;SDS011;11841;49.368;20.962;2023-07-20T10:53:03;6.00;;;3.17;;
23338;SDS011;11841;49.368;20.962;2023-07-20T10:55:50;5.40;;;2.92;;
23338;SDS011;11841;49.368;20.962;2023-07-20T10:58:55;4.75;;;3.42;;
23338;SDS011;11841;49.368;20.962;2023-07-20T11:01:42;4.38;;;3.03;;
23338;SDS011;11841;49.368;20.962;2023-07-20T11:04:42;6.18;;;2.75;;
23338;SDS011;11841;49.368;20.962;2023-07-20T11:07:36;3.60;;;2.53;;
23338;SDS011;11841;49.368;20.962;2023-07-20T11:10:26;4.85;;;2.88;;
23338;SDS011;11841;49.368;20.962;2023-07-20T11:13:30;5.90;;;3.40;;
23338;SDS011;11841;49.368;20.962;2023-07-20T11:16:16;6.20;;;3.05;;
23338;SDS011;11841;49.368;20.962;2023-07-20T11:19:02;5.38;;;3.47;;
23338;SDS011;11841;49.368;20.962;2023-07-20T11:21:50;4.10;;;2.67;;
23338;SDS011;11841;49.368;20.962;2023-07-20T11:24:47;6.65;;;2.80;;
23338;SDS011;11841;49.368;20.962;2023-07-20T11:27:37;8.38;;;3.33;;
23338;SDS011;11841;49.368;20.962;2023-07-20T11:30:32;3.40;;;2.67;;
23338;SDS011;11841;49.368;20.962;2023-07-20T11:33:18;8.02;;;3.13;;
23338;SDS011;11841;49.368;20.962;2023-07-20T11:36:04;6.55;;;2.50;;
23338;SDS011;11841;49.368;20.962;2023-07-20T11:39:11;3.90;;;2.80;;
23338;SDS011;11841;49.368;20.962;2023-07-20T11:41:58;6.38;;;2.75;;
23338;SDS011;11841;49.368;20.962;2023-07-20T11:44:43;6.18;;;3.25;;
23338;SDS011;11841;49.368;20.962;2023-07-20T11:47:29;10.63;;;2.95;;
23338;SDS011;11841;49.368;20.962;2023-07-20T11:50:15;4.55;;;2.70;;
23338;SDS011;11841;49.368;20.962;2023-07-20T11:53:01;4.95;;;2.58;;
23338;SDS011;11841;49.368;20.962;2023-07-20T11:55:49;5.00;;;2.88;;
23338;SDS011;11841;49.368;20.962;2023-07-20T11:58:34;3.85;;;2.60;;
23338;SDS011;11841;49.368;20.962;2023-07-20T12:01:20;7.25;;;2.92;;
23338;SDS011;11841;49.368;20.962;2023-07-20T12:04:05;7.78;;;2.63;;
23338;SDS011;11841;49.368;20.962;2023-07-20T12:06:53;5.55;;;2.67;;
23338;SDS011;11841;49.368;20.962;2023-07-20T12:09:40;3.35;;;2.63;;
23338;SDS011;11841;49.368;20.962;2023-07-20T12:12:39;3.80;;;2.67;;
23338;SDS011;11841;49.368;20.962;2023-07-20T12:15:33;5.03;;;3.15;;
23338;SDS011;11841;49.368;20.962;2023-07-20T12:18:18;5.43;;;2.70;;
23338;SDS011;11841;49.368;20.962;2023-07-20T12:21:07;7.55;;;2.40;;
23338;SDS011;11841;49.368;20.962;2023-07-20T12:23:55;4.70;;;2.47;;
23338;SDS011;11841;49.368;20.962;2023-07-20T12:26:42;3.93;;;2.57;;
23338;SDS011;11841;49.368;20.962;2023-07-20T12:29:27;4.70;;;2.95;;
23338;SDS011;11841;49.368;20.962;2023-07-20T12:32:13;4.50;;;2.33;;
23338;SDS011;11841;49.368;20.962;2023-07-20T12:34:58;3.65;;;2.22;;
23338;SDS011;11841;49.368;20.962;2023-07-20T12:37:45;5.43;;;2.92;;
23338;SDS011;11841;49.368;20.962;2023-07-20T12:40:34;4.88;;;2.08;;
23338;SDS011;11841;49.368;20.962;2023-07-20T12:43:19;5.80;;;2.38;;
23338;SDS011;11841;49.368;20.962;2023-07-20T12:46:04;3.75;;;2.50;;
23338;SDS011;11841;49.368;20.962;2023-07-20T12:48:51;4.75;;;2.58;;
23338;SDS011;11841;49.368;20.962;2023-07-20T12:51:36;6.63;;;2.60;;
23338;SDS011;11841;49.368;20.962;2023-07-20T12:54:21;5.25;;;2.58;;
23338;SDS011;11841;49.368;20.962;2023-07-20T12:57:06;3.60;;;2.60;;
23338;SDS011;11841;49.368;20.962;2023-07-20T12:59:55;3.25;;;2.03;;
23338;SDS011;11841;49.368;20.962;2023-07-20T13:02:40;4.47;;;2.78;;
23338;SDS011;11841;49.368;20.962;2023-07-20T13:05:26;2.92;;;2.50;;
23338;SDS011;11841;49.368;20.962;2023-07-20T13:08:14;3.73;;;2.63;;
23338;SDS011;11841;49.368;20.962;2023-07-20T13:11:03;4.35;;;2.80;;
23338;SDS011;11841;49.368;20.962;2023-07-20T13:13:49;5.00;;;2.50;;
23338;SDS011;11841;49.368;20.962;2023-07-20T13:16:35;6.28;;;1.92;;
23338;SDS011;11841;49.368;20.962;2023-07-20T13:19:20;4.18;;;2.00;;
23338;SDS011;11841;49.368;20.962;2023-07-20T13:22:06;4.78;;;2.03;;
23338;SDS011;11841;49.368;20.962;2023-07-20T13:24:52;3.13;;;2.38;;
23338;SDS011;11841;49.368;20.962;2023-07-20T13:27:37;4.15;;;2.15;;
23338;SDS011;11841;49.368;20.962;2023-07-20T13:30:23;2.95;;;2.00;;
23338;SDS011;11841;49.368;20.962;2023-07-20T13:33:09;3.22;;;2.40;;
23338;SDS011;11841;49.368;20.962;2023-07-20T13:36:01;2.67;;;2.10;;
23338;SDS011;11841;49.368;20.962;2023-07-20T13:38:53;3.65;;;1.95;;
23338;SDS011;11841;49.368;20.962;2023-07-20T13:41:39;5.38;;;2.67;;
23338;SDS011;11841;49.368;20.962;2023-07-20T13:44:24;3.45;;;2.35;;
23338;SDS011;11841;49.368;20.962;2023-07-20T13:47:09;5.97;;;1.75;;
23338;SDS011;11841;49.368;20.962;2023-07-20T13:49:58;4.50;;;2.13;;
23338;SDS011;11841;49.368;20.962;2023-07-20T13:52:46;3.63;;;2.00;;
23338;SDS011;11841;49.368;20.962;2023-07-20T13:55:31;4.75;;;2.05;;
23338;SDS011;11841;49.368;20.962;2023-07-20T13:58:21;2.33;;;1.80;;
23338;SDS011;11841;49.368;20.962;2023-07-20T14:01:07;2.97;;;2.25;;
23338;SDS011;11841;49.368;20.962;2023-07-20T14:03:52;3.78;;;2.08;;
23338;SDS011;11841;49.368;20.962;2023-07-20T14:06:38;2.70;;;2.13;;
23338;SDS011;11841;49.368;20.962;2023-07-20T14:09:23;3.72;;;2.00;;
23338;SDS011;11841;49.368;20.962;2023-07-20T14:12:09;5.45;;;2.30;;
23338;SDS011;11841;49.368;20.962;2023-07-20T14:14:57;4.38;;;2.05;;
23338;SDS011;11841;49.368;20.962;2023-07-20T14:17:43;2.20;;;1.73;;
23338;SDS011;11841;49.368;20.962;2023-07-20T14:20:29;4.20;;;2.25;;
23338;SDS011;11841;49.368;20.962;2023-07-20T14:23:14;3.90;;;1.95;;
23338;SDS011;11841;49.368;20.962;2023-07-20T14:26:00;5.85;;;2.00;;
23338;SDS011;11841;49.368;20.962;2023-07-20T14:28:45;4.53;;;1.70;;
23338;SDS011;11841;49.368;20.962;2023-07-20T14:31:31;5.78;;;1.83;;
23338;SDS011;11841;49.368;20.962;2023-07-20T14:34:17;4.30;;;2.20;;
23338;SDS011;11841;49.368;20.962;2023-07-20T14:37:04;3.92;;;1.83;;
23338;SDS011;11841;49.368;20.962;2023-07-20T14:39:52;3.80;;;1.80;;
23338;SDS011;11841;49.368;20.962;2023-07-20T14:42:37;5.97;;;2.20;;
23338;SDS011;11841;49.368;20.962;2023-07-20T14:45:23;2.30;;;1.88;;
23338;SDS011;11841;49.368;20.962;2023-07-20T14:48:08;2.80;;;1.80;;
23338;SDS011;11841;49.368;20.962;2023-07-20T14:50:53;2.80;;;1.83;;
23338;SDS011;11841;49.368;20.962;2023-07-20T14:53:49;1.95;;;1.67;;
23338;SDS011;11841;49.368;20.962;2023-07-20T14:56:34;4.75;;;2.10;;
23338;SDS011;11841;49.368;20.962;2023-07-20T14:59:20;3.05;;;1.90;;
23338;SDS011;11841;49.368;20.962;2023-07-20T15:02:06;3.28;;;2.20;;
23338;SDS011;11841;49.368;20.962;2023-07-20T15:04:52;2.58;;;1.70;;
23338;SDS011;11841;49.368;20.962;2023-07-20T15:07:37;8.57;;;4.22;;
23338;SDS011;11841;49.368;20.962;2023-07-20T15:10:23;5.40;;;2.25;;
23338;SDS011;11841;49.368;20.962;2023-07-20T15:13:08;3.53;;;2.00;;
23338;SDS011;11841;49.368;20.962;2023-07-20T15:15:54;2.90;;;1.98;;
23338;SDS011;11841;49.368;20.962;2023-07-20T15:18:39;3.42;;;1.83;;
23338;SDS011;11841;49.368;20.962;2023-07-20T15:21:33;3.08;;;1.90;;
23338;SDS011;11841;49.368;20.962;2023-07-20T15:24:18;4.88;;;1.77;;
23338;SDS011;11841;49.368;20.962;2023-07-20T15:27:03;2.03;;;1.60;;
23338;SDS011;11841;49.368;20.962;2023-07-20T15:29:49;3.15;;;1.90;;
23338;SDS011;11841;49.368;20.962;2023-07-20T15:32:35;3.33;;;1.77;;
23338;SDS011;11841;49.368;20.962;2023-07-20T15:38:09;3.88;;;2.20;;
23338;SDS011;11841;49.368;20.962;2023-07-20T15:40:54;9.27;;;2.80;;
23338;SDS011;11841;49.368;20.962;2023-07-20T15:43:42;2.85;;;2.20;;
23338;SDS011;11841;49.368;20.962;2023-07-20T15:49:26;2.83;;;1.73;;
23338;SDS011;11841;49.368;20.962;2023-07-20T15:52:17;5.03;;;2.22;;
23338;SDS011;11841;49.368;20.962;2023-07-20T15:55:03;6.22;;;1.92;;
23338;SDS011;11841;49.368;20.962;2023-07-20T15:57:49;4.38;;;1.90;;
23338;SDS011;11841;49.368;20.962;2023-07-20T16:00:35;3.63;;;2.15;;
23338;SDS011;11841;49.368;20.962;2023-07-20T16:03:21;7.40;;;1.90;;
23338;SDS011;11841;49.368;20.962;2023-07-20T16:06:07;3.28;;;2.28;;
23338;SDS011;11841;49.368;20.962;2023-07-20T16:08:53;3.00;;;2.08;;
23338;SDS011;11841;49.368;20.962;2023-07-20T16:11:38;27.90;;;2.85;;
23338;SDS011;11841;49.368;20.962;2023-07-20T16:14:24;6.78;;;2.72;;
23338;SDS011;11841;49.368;20.962;2023-07-20T16:17:09;6.55;;;3.25;;
23338;SDS011;11841;49.368;20.962;2023-07-20T16:19:54;4.07;;;3.50;;
23338;SDS011;11841;49.368;20.962;2023-07-20T16:22:40;3.03;;;2.38;;
23338;SDS011;11841;49.368;20.962;2023-07-20T16:25:25;3.78;;;2.80;;
23338;SDS011;11841;49.368;20.962;2023-07-20T16:28:11;4.97;;;1.90;;
23338;SDS011;11841;49.368;20.962;2023-07-20T16:30:56;2.90;;;2.50;;
23338;SDS011;11841;49.368;20.962;2023-07-20T16:33:43;2.63;;;1.90;;
23338;SDS011;11841;49.368;20.962;2023-07-20T16:36:30;4.13;;;2.13;;
23338;SDS011;11841;49.368;20.962;2023-07-20T16:39:38;3.03;;;2.20;;
23338;SDS011;11841;49.368;20.962;2023-07-20T16:42:31;7.28;;;2.30;;
23338;SDS011;11841;49.368;20.962;2023-07-20T16:45:19;4.00;;;2.55;;
23338;SDS011;11841;49.368;20.962;2023-07-20T16:48:05;5.47;;;2.55;;
23338;SDS011;11841;49.368;20.962;2023-07-20T16:50:51;6.22;;;2.47;;
23338;SDS011;11841;49.368;20.962;2023-07-20T16:53:36;2.85;;;2.05;;
23338;SDS011;11841;49.368;20.962;2023-07-20T16:56:22;3.40;;;2.60;;